createdAt,value
2022-10-29T00:00:25.531Z,15.57
2022-10-29T00:03:11.852Z,17.45
2022-10-29T00:06:02.140Z,21.23
2022-10-29T00:08:47.637Z,16.85
2022-10-29T00:11:48.449Z,15.73
2022-10-29T00:14:44.388Z,14.63
2022-10-29T00:17:36.753Z,15.32
2022-10-29T00:20:32.319Z,16.95
2022-10-29T00:23:35.635Z,14.43
2022-10-29T00:26:30.728Z,13.60
2022-10-29T00:29:17.882Z,11.38
2022-10-29T00:32:03.707Z,11.75
2022-10-29T00:34:49.296Z,11.23
2022-10-29T00:37:35.821Z,12.63
2022-10-29T00:40:21.311Z,12.80
2022-10-29T00:43:48.735Z,18.25
2022-10-29T00:47:18.692Z,8.95
2022-10-29T00:50:17.992Z,16.23
2022-10-29T00:53:04.017Z,18.55
2022-10-29T00:55:49.830Z,23.25
2022-10-29T00:58:49.199Z,14.88
2022-10-29T01:01:52.215Z,20.00
2022-10-29T01:04:48.419Z,22.38
2022-10-29T01:07:47.588Z,17.42
2022-10-29T01:11:02.575Z,11.73
2022-10-29T01:14:21.011Z,20.80
2022-10-29T01:17:32.658Z,16.42
2022-10-29T01:20:29.825Z,15.50
2022-10-29T01:23:52.414Z,13.90
2022-10-29T01:27:03.393Z,11.25
2022-10-29T01:30:47.957Z,15.73
2022-10-29T01:34:02.410Z,11.48
2022-10-29T01:37:15.184Z,16.55
2022-10-29T01:40:08.012Z,14.68
2022-10-29T01:43:17.915Z,18.88
2022-10-29T01:46:16.253Z,12.27
2022-10-29T01:49:13.099Z,12.73
2022-10-29T01:52:21.993Z,12.90
2022-10-29T01:55:43.802Z,15.65
2022-10-29T01:59:03.787Z,12.88
2022-10-29T02:02:12.632Z,22.73
2022-10-29T02:05:15.932Z,14.55
2022-10-29T02:08:24.380Z,19.00
2022-10-29T02:11:35.737Z,18.75
2022-10-29T02:14:35.870Z,18.20
2022-10-29T02:17:23.337Z,19.00
2022-10-29T02:20:11.241Z,16.63
2022-10-29T02:22:59.187Z,15.75
2022-10-29T02:25:51.671Z,18.05
2022-10-29T02:28:37.243Z,11.37
2022-10-29T02:31:22.844Z,11.60
2022-10-29T02:34:08.449Z,17.02
2022-10-29T02:36:54.056Z,16.60
2022-10-29T02:39:39.622Z,13.15
2022-10-29T02:42:25.070Z,20.75
2022-10-29T02:45:10.806Z,9.93
2022-10-29T02:47:56.326Z,14.93
2022-10-29T02:50:41.496Z,14.82
2022-10-29T02:53:27.044Z,21.17
2022-10-29T02:56:12.819Z,15.52
2022-10-29T02:58:58.324Z,15.77
2022-10-29T03:01:43.768Z,16.77
2022-10-29T03:04:29.060Z,12.35
2022-10-29T03:07:14.392Z,11.50
2022-10-29T03:09:59.937Z,16.38
2022-10-29T03:12:45.444Z,14.07
2022-10-29T03:15:30.835Z,16.10
2022-10-29T03:18:16.295Z,13.65
2022-10-29T03:21:01.697Z,14.57
2022-10-29T03:23:46.962Z,23.17
2022-10-29T03:26:32.350Z,18.67
2022-10-29T03:29:17.883Z,17.08
2022-10-29T03:32:03.512Z,15.77
2022-10-29T03:34:48.987Z,13.25
2022-10-29T03:37:34.385Z,20.05
2022-10-29T03:40:20.353Z,14.57
2022-10-29T03:43:05.807Z,11.07
2022-10-29T03:45:55.959Z,13.02
2022-10-29T03:48:41.259Z,10.90
2022-10-29T03:51:26.892Z,12.02
2022-10-29T03:54:12.440Z,11.88
2022-10-29T03:56:58.005Z,14.38
2022-10-29T03:59:45.918Z,17.98
2022-10-29T04:02:33.957Z,13.95
2022-10-29T04:05:19.297Z,9.23
2022-10-29T04:08:04.946Z,14.77
2022-10-29T04:10:51.420Z,14.98
2022-10-29T04:13:47.865Z,11.70
2022-10-29T04:16:35.401Z,13.30
2022-10-29T04:19:21.126Z,13.00
2022-10-29T04:28:42.585Z,20.55
2022-10-29T04:31:23.388Z,13.07
2022-10-29T04:34:08.928Z,12.55
2022-10-29T04:36:54.348Z,14.38
2022-10-29T04:39:39.631Z,16.17
2022-10-29T04:42:25.274Z,14.80
2022-10-29T04:45:10.844Z,12.65
2022-10-29T04:48:01.050Z,11.95
2022-10-29T04:50:46.465Z,18.08
2022-10-29T04:53:34.808Z,11.40
2022-10-29T04:56:26.822Z,14.77
2022-10-29T04:59:13.405Z,14.10
2022-10-29T05:01:58.940Z,14.82
2022-10-29T05:04:44.553Z,15.95
2022-10-29T05:07:29.884Z,15.02
2022-10-29T05:10:15.460Z,10.40
2022-10-29T05:13:08.000Z,22.58
2022-10-29T05:15:53.712Z,16.83
2022-10-29T05:18:42.909Z,11.93
2022-10-29T05:21:30.929Z,12.48
2022-10-29T05:24:20.660Z,12.55
2022-10-29T05:27:12.821Z,14.00
2022-10-29T05:29:58.358Z,12.15
2022-10-29T05:32:44.540Z,12.55
2022-10-29T05:35:30.049Z,16.65
2022-10-29T05:38:16.716Z,15.65
2022-10-29T05:41:02.164Z,13.43
2022-10-29T05:43:50.541Z,15.35
2022-10-29T05:46:51.022Z,11.02
2022-10-29T05:49:36.757Z,12.07
2022-10-29T05:52:23.288Z,12.70
2022-10-29T05:55:09.072Z,12.02
2022-10-29T05:58:03.850Z,15.82
2022-10-29T06:00:49.349Z,11.88
2022-10-29T06:03:35.294Z,12.85
2022-10-29T06:06:20.455Z,10.60
2022-10-29T06:09:06.015Z,13.77
2022-10-29T06:11:52.638Z,15.98
2022-10-29T06:14:38.120Z,11.05
2022-10-29T06:17:23.752Z,10.20
2022-10-29T06:20:11.161Z,10.60
2022-10-29T06:22:58.553Z,11.60
2022-10-29T06:25:44.456Z,14.00
2022-10-29T06:28:33.662Z,20.08
2022-10-29T06:31:20.302Z,15.30
2022-10-29T06:34:05.874Z,9.77
2022-10-29T06:36:51.285Z,12.50
2022-10-29T06:39:36.922Z,11.13
2022-10-29T06:42:22.265Z,8.10
2022-10-29T06:45:08.348Z,11.82
2022-10-29T06:47:54.288Z,15.05
2022-10-29T06:50:39.976Z,13.73
2022-10-29T06:53:26.056Z,13.88
2022-10-29T06:56:11.636Z,14.30
2022-10-29T06:58:57.084Z,15.07
2022-10-29T07:01:42.848Z,15.00
2022-10-29T07:04:28.181Z,13.57
2022-10-29T07:07:14.123Z,11.75
2022-10-29T07:09:59.673Z,16.30
2022-10-29T07:12:45.601Z,15.10
2022-10-29T07:15:31.580Z,19.27
2022-10-29T07:18:17.124Z,15.13
2022-10-29T07:21:03.863Z,16.58
2022-10-29T07:23:49.117Z,18.92
2022-10-29T07:26:35.370Z,13.95
2022-10-29T07:29:20.773Z,17.58
2022-10-29T07:32:06.253Z,14.40
2022-10-29T07:34:51.882Z,19.30
2022-10-29T07:37:37.604Z,11.65
2022-10-29T07:40:22.670Z,20.33
2022-10-29T07:43:09.392Z,19.33
2022-10-29T07:45:54.859Z,21.13
2022-10-29T07:48:40.453Z,16.27
2022-10-29T07:51:26.150Z,22.33
2022-10-29T07:54:14.735Z,17.80
2022-10-29T07:57:00.368Z,16.17
2022-10-29T07:59:47.054Z,17.55
2022-10-29T08:02:32.451Z,17.27
2022-10-29T08:05:17.820Z,21.00
2022-10-29T08:08:03.933Z,21.05
2022-10-29T08:10:49.318Z,15.35
2022-10-29T08:13:35.110Z,15.70
2022-10-29T08:16:20.331Z,14.63
2022-10-29T08:19:05.850Z,16.55
2022-10-29T08:21:51.614Z,16.33
2022-10-29T08:24:36.701Z,19.30
2022-10-29T08:27:22.534Z,20.52
2022-10-29T08:30:09.494Z,16.27
2022-10-29T08:32:55.373Z,17.42
2022-10-29T08:35:40.751Z,14.77
2022-10-29T08:38:27.321Z,15.98
2022-10-29T08:41:28.281Z,24.35
2022-10-29T08:44:45.044Z,15.38
2022-10-29T08:47:51.684Z,15.35
2022-10-29T08:50:44.690Z,20.55
2022-10-29T08:53:45.354Z,20.60
2022-10-29T08:56:36.173Z,15.68
2022-10-29T08:59:24.942Z,14.38
2022-10-29T09:02:18.422Z,20.73
2022-10-29T09:05:04.091Z,15.57
2022-10-29T09:08:27.248Z,18.60
2022-10-29T09:11:31.297Z,19.08
2022-10-29T09:14:50.209Z,14.23
2022-10-29T09:18:04.649Z,14.43
2022-10-29T09:21:22.456Z,20.52
2022-10-29T09:24:15.083Z,17.13
2022-10-29T09:27:10.629Z,17.58
2022-10-29T09:29:58.941Z,13.82
2022-10-29T09:33:05.002Z,14.90
2022-10-29T09:35:56.124Z,12.57
2022-10-29T09:38:56.333Z,15.38
2022-10-29T09:41:42.059Z,15.10
2022-10-29T10:51:31.250Z,15.40
2022-10-29T10:54:31.378Z,18.67
2022-10-29T10:57:23.039Z,18.25
2022-10-29T11:00:19.649Z,13.00
2022-10-29T11:03:21.725Z,18.17
2022-10-29T11:06:08.759Z,16.23
2022-10-29T11:09:00.257Z,16.45
2022-10-29T11:11:58.862Z,12.35
2022-10-29T11:15:06.573Z,13.07
2022-10-29T11:18:18.589Z,13.07
2022-10-29T11:21:23.201Z,15.40
2022-10-29T11:24:26.098Z,17.20
2022-10-29T11:27:24.316Z,14.93
2022-10-29T11:30:13.530Z,13.43
2022-10-29T11:33:02.137Z,21.77
2022-10-29T11:36:01.544Z,19.63
2022-10-29T11:39:11.213Z,16.40
2022-10-29T11:42:01.424Z,14.27
2022-10-29T11:44:46.857Z,14.60
2022-10-29T11:47:51.345Z,13.65
2022-10-29T11:51:02.107Z,17.80
2022-10-29T11:53:56.381Z,17.05
2022-10-29T11:56:47.570Z,17.63
2022-10-29T11:59:45.172Z,15.88
2022-10-29T12:02:39.420Z,16.20
2022-10-29T12:05:39.578Z,14.45
2022-10-29T12:08:43.284Z,16.88
2022-10-29T12:11:58.205Z,14.82
2022-10-29T12:14:52.970Z,14.40
2022-10-29T12:18:00.093Z,13.18
2022-10-29T12:21:16.897Z,16.90
2022-10-29T12:24:17.181Z,11.45
2022-10-29T12:27:15.375Z,13.93
2022-10-29T12:30:09.250Z,12.70
2022-10-29T12:32:58.167Z,14.23
2022-10-29T12:35:54.836Z,18.45
2022-10-29T12:38:44.662Z,15.70
2022-10-29T12:41:36.918Z,22.55
2022-10-29T12:44:54.305Z,15.93
2022-10-29T12:47:55.161Z,12.65
2022-10-29T12:50:58.781Z,13.20
2022-10-29T12:54:20.977Z,12.52
2022-10-29T12:57:12.669Z,12.98
2022-10-29T13:00:18.279Z,12.30
2022-10-29T13:03:04.756Z,20.73
2022-10-29T13:05:50.645Z,12.95
2022-10-29T13:08:36.276Z,13.13
2022-10-29T13:11:24.805Z,9.32
2022-10-29T13:14:12.757Z,15.18
2022-10-29T13:16:58.818Z,15.75
2022-10-29T13:19:52.170Z,12.60
2022-10-29T13:22:56.711Z,17.27
2022-10-29T13:25:47.519Z,16.02
2022-10-29T13:28:36.141Z,17.25
2022-10-29T13:31:21.624Z,17.25
2022-10-29T13:34:07.354Z,19.80
2022-10-29T13:36:52.795Z,14.02
2022-10-29T13:39:37.967Z,13.90
2022-10-29T13:42:23.826Z,12.65
2022-10-29T13:45:13.724Z,13.07
2022-10-29T13:48:03.747Z,15.75
2022-10-29T13:50:51.802Z,12.77
2022-10-29T13:53:57.366Z,17.90
2022-10-29T13:57:00.573Z,16.33
2022-10-29T13:59:57.472Z,13.23
2022-10-29T14:02:43.052Z,13.70
2022-10-29T14:05:38.846Z,16.00
2022-10-29T14:08:50.372Z,15.25
2022-10-29T14:11:40.105Z,19.85
2022-10-29T14:14:33.585Z,14.95
2022-10-29T14:17:19.860Z,16.88
2022-10-29T14:20:05.296Z,19.75
2022-10-29T14:22:50.664Z,11.13
2022-10-29T14:25:37.025Z,18.95
2022-10-29T14:28:30.226Z,17.17
2022-10-29T14:31:18.352Z,17.38
2022-10-29T14:34:03.490Z,18.63
2022-10-29T14:36:52.128Z,15.93
2022-10-29T14:39:58.067Z,18.77
2022-10-29T14:42:48.986Z,12.88
2022-10-29T14:45:34.559Z,14.73
2022-10-29T14:48:20.450Z,16.95
2022-10-29T14:51:06.012Z,20.23
2022-10-29T14:54:01.988Z,17.88
2022-10-29T14:56:52.046Z,15.52
2022-10-29T14:59:38.111Z,17.67
2022-10-29T15:02:37.606Z,16.73
2022-10-29T15:05:27.514Z,17.45
2022-10-29T15:08:24.146Z,18.55
2022-10-29T15:11:34.396Z,19.00
2022-10-29T15:14:38.872Z,15.05
2022-10-29T15:17:28.448Z,16.98
2022-10-29T15:20:32.873Z,15.27
2022-10-29T15:23:38.158Z,15.82
2022-10-29T15:26:23.585Z,18.95
2022-10-29T15:29:11.968Z,17.23
2022-10-29T15:31:57.948Z,18.63
2022-10-29T15:34:49.707Z,17.13
2022-10-29T15:37:46.061Z,14.00
2022-10-29T15:40:31.297Z,18.27
2022-10-29T15:43:30.220Z,20.35
2022-10-29T15:46:30.757Z,20.50
2022-10-29T15:49:16.478Z,25.38
2022-10-29T15:52:03.616Z,17.90
2022-10-29T15:54:49.314Z,22.20
2022-10-29T15:57:35.032Z,16.48
2022-10-29T16:00:22.665Z,20.55
2022-10-29T16:03:18.116Z,24.15
2022-10-29T16:06:06.367Z,17.83
2022-10-29T16:08:57.288Z,22.38
2022-10-29T16:11:42.683Z,23.33
2022-10-29T16:14:28.344Z,19.77
2022-10-29T16:17:19.678Z,22.77
2022-10-29T16:20:05.694Z,19.35
2022-10-29T16:22:51.204Z,17.05
2022-10-29T16:25:37.021Z,22.48
2022-10-29T16:28:22.451Z,20.08
2022-10-29T16:31:24.862Z,13.07
2022-10-29T16:34:13.522Z,20.70
2022-10-29T16:36:58.949Z,20.17
2022-10-29T16:39:45.065Z,21.33
2022-10-29T16:42:34.175Z,27.27
2022-10-29T16:45:22.201Z,23.38
2022-10-29T16:48:07.806Z,22.70
2022-10-29T16:50:53.129Z,17.90
2022-10-29T16:53:38.711Z,19.17
2022-10-29T16:56:24.285Z,19.40
2022-10-29T16:59:09.656Z,21.08
2022-10-29T17:01:55.031Z,21.15
2022-10-29T17:04:40.691Z,23.35
2022-10-29T17:07:26.054Z,21.05
2022-10-29T17:10:11.768Z,19.85
2022-10-29T17:12:58.288Z,24.98
2022-10-29T17:15:44.297Z,23.75
2022-10-29T17:18:29.771Z,22.13
2022-10-29T17:21:15.229Z,23.25
2022-10-29T17:24:06.736Z,18.38
2022-10-29T17:26:53.973Z,27.70
2022-10-29T17:29:39.952Z,22.17
2022-10-29T17:32:25.262Z,26.52
2022-10-29T17:35:11.038Z,21.05
2022-10-29T17:37:56.470Z,22.08
2022-10-29T17:40:44.627Z,23.85
2022-10-29T17:43:30.222Z,19.90
2022-10-29T17:46:16.206Z,24.45
2022-10-29T17:49:01.557Z,25.27
2022-10-29T17:51:47.044Z,21.77
2022-10-29T17:54:35.066Z,21.05
2022-10-29T17:57:20.846Z,23.27
2022-10-29T18:00:07.138Z,26.98
2022-10-29T18:02:52.837Z,25.85
2022-10-29T18:05:38.457Z,19.02
2022-10-29T18:08:23.972Z,19.67
2022-10-29T18:11:10.659Z,23.52
2022-10-29T18:13:57.308Z,23.40
2022-10-29T18:16:42.968Z,23.15
2022-10-29T18:19:28.336Z,27.40
2022-10-29T18:22:13.867Z,20.45
2022-10-29T18:24:59.209Z,22.25
2022-10-29T18:27:44.819Z,20.05
2022-10-29T18:30:30.322Z,23.50
2022-10-29T18:33:15.869Z,17.02
2022-10-29T18:36:01.422Z,21.13
2022-10-29T18:38:52.616Z,19.42
2022-10-29T18:41:37.914Z,25.35
2022-10-29T18:44:23.558Z,27.98
2022-10-29T18:47:09.260Z,21.88
2022-10-29T18:49:54.538Z,17.50
2022-10-29T18:52:40.012Z,24.13
2022-10-29T18:55:25.700Z,29.02
2022-10-29T18:58:11.029Z,21.83
2022-10-29T19:01:07.522Z,24.08
2022-10-29T19:03:55.637Z,22.23
2022-10-29T19:06:41.662Z,23.33
2022-10-29T19:09:27.392Z,24.55
2022-10-29T19:12:13.196Z,29.10
2022-10-29T19:14:58.470Z,22.65
2022-10-29T19:17:44.024Z,25.25
2022-10-29T19:20:30.654Z,25.40
2022-10-29T19:23:16.331Z,23.52
2022-10-29T19:26:10.455Z,22.80
2022-10-29T19:28:58.349Z,24.45
2022-10-29T19:31:46.160Z,22.30
2022-10-29T19:34:31.611Z,21.33
2022-10-29T19:37:17.112Z,32.50
2022-10-29T19:40:03.008Z,55.85
2022-10-29T19:42:48.616Z,55.70
2022-10-29T19:45:33.863Z,64.95
2022-10-29T19:48:19.346Z,35.05
2022-10-29T19:51:05.037Z,26.67
2022-10-29T19:53:51.644Z,24.33
2022-10-29T19:56:37.335Z,27.27
2022-10-29T19:59:22.933Z,19.40
2022-10-29T20:02:10.472Z,24.35
2022-10-29T20:04:56.048Z,21.15
2022-10-29T20:07:41.810Z,36.58
2022-10-29T20:10:27.552Z,29.38
2022-10-29T20:13:13.155Z,26.63
2022-10-29T20:15:58.826Z,27.25
2022-10-29T20:18:45.051Z,21.88
2022-10-29T20:21:30.521Z,23.50
2022-10-29T20:24:16.057Z,20.95
2022-10-29T20:27:01.719Z,19.48
2022-10-29T20:29:47.232Z,20.95
2022-10-29T20:32:32.946Z,18.13
2022-10-29T20:35:18.362Z,23.67
2022-10-29T20:38:04.034Z,17.02
2022-10-29T20:40:50.916Z,19.13
2022-10-29T20:43:36.304Z,19.00
2022-10-29T20:46:23.035Z,17.15
2022-10-29T20:49:08.154Z,16.95
2022-10-29T20:51:53.649Z,18.77
2022-10-29T20:54:39.302Z,19.20
2022-10-29T20:57:24.847Z,19.48
2022-10-29T21:00:10.972Z,22.92
2022-10-29T21:02:56.321Z,22.20
2022-10-29T21:05:42.151Z,21.95
2022-10-29T21:11:15.508Z,21.80
2022-10-29T21:14:01.143Z,21.83
2022-10-29T21:16:46.870Z,24.00
2022-10-29T21:19:33.152Z,20.70
2022-10-29T21:22:19.239Z,28.13
2022-10-29T21:25:05.446Z,22.35
2022-10-29T21:27:54.351Z,22.73
2022-10-29T21:30:39.836Z,23.65
2022-10-29T21:33:25.459Z,27.73
2022-10-29T21:36:14.227Z,22.75
2022-10-29T21:39:00.095Z,28.98
2022-10-29T21:41:45.610Z,28.38
2022-10-29T21:44:31.294Z,23.92
2022-10-29T21:47:16.940Z,28.52
2022-10-29T21:50:02.545Z,19.95
2022-10-29T21:52:48.034Z,23.13
2022-10-29T21:55:34.447Z,19.60
2022-10-29T21:58:19.559Z,20.38
2022-10-29T22:01:16.069Z,22.77
2022-10-29T22:04:01.763Z,19.52
2022-10-29T22:06:47.331Z,22.52
2022-10-29T22:09:32.773Z,25.52
2022-10-29T22:12:18.282Z,17.30
2022-10-29T22:15:04.429Z,19.67
2022-10-29T22:17:49.644Z,17.45
2022-10-29T22:20:35.187Z,15.30
2022-10-29T22:23:20.540Z,14.93
2022-10-29T22:26:06.414Z,24.27
2022-10-29T22:28:51.773Z,28.98
2022-10-29T22:31:37.322Z,22.00
2022-10-29T22:34:22.927Z,17.88
2022-10-29T22:37:08.303Z,15.98
2022-10-29T22:39:53.854Z,19.40
2022-10-29T22:42:39.170Z,17.25
2022-10-29T22:45:24.915Z,20.10
2022-10-29T22:48:10.467Z,17.17
2022-10-29T22:51:00.765Z,17.00
2022-10-29T22:53:47.167Z,18.88
2022-10-29T22:56:35.592Z,20.90
2022-10-29T22:59:21.035Z,17.92
2022-10-29T23:02:06.735Z,20.63
2022-10-29T23:04:52.354Z,19.13
2022-10-29T23:07:37.753Z,15.23
2022-10-29T23:10:23.216Z,15.02
2022-10-29T23:13:08.898Z,19.48
2022-10-29T23:15:54.669Z,21.85
2022-10-29T23:18:40.105Z,21.83
2022-10-29T23:21:25.995Z,26.52
2022-10-29T23:24:12.121Z,18.58
2022-10-29T23:26:57.746Z,17.52
2022-10-29T23:29:43.327Z,19.30
2022-10-29T23:32:28.830Z,22.23
2022-10-29T23:35:14.474Z,16.30
2022-10-29T23:38:00.462Z,21.10
2022-10-29T23:40:47.493Z,19.95
2022-10-29T23:43:33.056Z,18.75
2022-10-29T23:46:21.430Z,14.65
2022-10-29T23:49:06.888Z,15.00
2022-10-29T23:51:52.360Z,15.07
2022-10-29T23:54:39.262Z,17.67
2022-10-29T23:57:24.742Z,22.52
